This is the latest recevied weather packets stored in our database for station/object VK2OB. If no packets are shown the sender has not sent any weather packets the latest 10 day(s).
| Time | Temp. | Humidity | Pressure | Rain* | Wind** | Luminosity | Snow |
|---|---|---|---|---|---|---|---|
| 1778026928 | 22.78° C | 52% | 1019.9 hPa | 0 mm | - | - | - |
| 1778026629 | 22.22° C | 52% | 1020 hPa | 0 mm | - | - | - |
| 1778026330 | 21.67° C | 54% | 1020.1 hPa | 0 mm | - | - | - |
| 1778026031 | 21.67° C | 53% | 1020.1 hPa | 0 mm | - | - | - |
| 1778025134 | 23.33° C | 51% | 1020.2 hPa | 0 mm | - | - | - |
| 1778024835 | 23.33° C | 50% | 1020.2 hPa | 0 mm | - | - | - |
| 1778022733 | 20.56° C | 59% | 1020.1 hPa | 0 mm | - | - | - |
| 1778020475 | 16.67° C | 70% | 1020.2 hPa | 0 mm | - | - | - |
| 1778020019 | 16.11° C | 70% | 1020.2 hPa | 0 mm | - | - | - |
| 1778019270 | 16.11° C | 72% | 1020.2 hPa | 0 mm | - | - | - |
| 1778018515 | 15.56° C | 77% | 1020.2 hPa | 0 mm | - | - | - |
| 1778017618 | 13.89° C | 80% | 1020.2 hPa | 0 mm | - | - | - |
| 1778017020 | 13.89° C | 78% | 1020.1 hPa | 0 mm | - | - | - |
| 1778016721 | 14.44° C | 76% | 1020.1 hPa | 0 mm | - | - | - |
| 1778016123 | 15° C | 73% | 1020 hPa | 0 mm | - | - | - |
| 1778015818 | 15° C | 73% | 1020 hPa | 0 mm | - | - | - |
| 1778014760 | 14.44° C | 75% | 1019.9 hPa | 0 mm | - | - | - |
| 1778013563 | 14.44° C | 77% | 1019.9 hPa | 0 mm | - | - | - |
| 1778013264 | 13.89° C | 77% | 1019.8 hPa | 0 mm | - | - | - |
| 1778012965 | 13.89° C | 78% | 1019.8 hPa | 0 mm | - | - | - |
| 1778012367 | 13.89° C | 80% | 1019.7 hPa | 0 mm | - | - | - |
| 1778011769 | 13.33° C | 80% | 1019.7 hPa | 0 mm | - | - | - |
| 1778011470 | 13.33° C | 81% | 1019.7 hPa | 0 mm | - | - | - |
| 1778011171 | 13.33° C | 80% | 1019.7 hPa | 0 mm | - | - | - |
| 1778010872 | 13.33° C | 79% | 1019.6 hPa | 0 mm | - | - | - |
* Rain latest hour (hover to see other rain measurements)
** Current wind speed in m/s (hover to see current wind gust speed)